sensor_id;sensor_type;location;lat;lon;timestamp;P1;durP1;ratioP1;P2;durP2;ratioP2
55758;SDS011;41678;52.126;20.664;2023-07-20T00:05:36;7.00;;;2.80;;
55758;SDS011;41678;52.126;20.664;2023-07-20T00:10:55;5.97;;;2.38;;
55758;SDS011;41678;52.126;20.664;2023-07-20T00:16:16;9.90;;;2.50;;
55758;SDS011;41678;52.126;20.664;2023-07-20T00:21:35;8.10;;;2.40;;
55758;SDS011;41678;52.126;20.664;2023-07-20T00:26:55;8.32;;;2.55;;
55758;SDS011;41678;52.126;20.664;2023-07-20T00:32:15;5.97;;;2.50;;
55758;SDS011;41678;52.126;20.664;2023-07-20T00:37:34;6.18;;;2.78;;
55758;SDS011;41678;52.126;20.664;2023-07-20T00:42:53;10.10;;;2.85;;
55758;SDS011;41678;52.126;20.664;2023-07-20T00:48:17;10.82;;;3.35;;
55758;SDS011;41678;52.126;20.664;2023-07-20T00:53:37;7.27;;;2.70;;
55758;SDS011;41678;52.126;20.664;2023-07-20T00:58:57;8.07;;;2.55;;
55758;SDS011;41678;52.126;20.664;2023-07-20T01:04:17;6.15;;;2.35;;
55758;SDS011;41678;52.126;20.664;2023-07-20T01:15:03;5.97;;;2.55;;
55758;SDS011;41678;52.126;20.664;2023-07-20T01:20:23;7.80;;;2.30;;
55758;SDS011;41678;52.126;20.664;2023-07-20T01:36:47;6.35;;;2.38;;
55758;SDS011;41678;52.126;20.664;2023-07-20T01:42:09;15.00;;;3.20;;
55758;SDS011;41678;52.126;20.664;2023-07-20T01:47:29;9.35;;;2.40;;
55758;SDS011;41678;52.126;20.664;2023-07-20T01:52:49;10.40;;;3.08;;
55758;SDS011;41678;52.126;20.664;2023-07-20T01:58:08;11.63;;;2.88;;
55758;SDS011;41678;52.126;20.664;2023-07-20T02:03:28;5.30;;;2.40;;
55758;SDS011;41678;52.126;20.664;2023-07-20T02:08:48;6.63;;;2.58;;
55758;SDS011;41678;52.126;20.664;2023-07-20T02:14:08;11.48;;;2.75;;
55758;SDS011;41678;52.126;20.664;2023-07-20T02:19:27;6.70;;;2.63;;
55758;SDS011;41678;52.126;20.664;2023-07-20T02:24:47;6.65;;;2.33;;
55758;SDS011;41678;52.126;20.664;2023-07-20T02:30:07;9.75;;;2.60;;
55758;SDS011;41678;52.126;20.664;2023-07-20T02:35:28;8.18;;;3.03;;
55758;SDS011;41678;52.126;20.664;2023-07-20T02:40:48;8.77;;;3.17;;
55758;SDS011;41678;52.126;20.664;2023-07-20T02:46:07;10.80;;;2.70;;
55758;SDS011;41678;52.126;20.664;2023-07-20T02:51:26;8.45;;;2.95;;
55758;SDS011;41678;52.126;20.664;2023-07-20T02:56:47;9.30;;;3.33;;
55758;SDS011;41678;52.126;20.664;2023-07-20T03:02:06;6.75;;;3.03;;
55758;SDS011;41678;52.126;20.664;2023-07-20T03:07:29;13.85;;;2.70;;
55758;SDS011;41678;52.126;20.664;2023-07-20T03:12:49;7.78;;;2.55;;
55758;SDS011;41678;52.126;20.664;2023-07-20T03:18:09;18.75;;;3.05;;
55758;SDS011;41678;52.126;20.664;2023-07-20T03:23:28;14.07;;;3.00;;
55758;SDS011;41678;52.126;20.664;2023-07-20T03:28:48;16.95;;;2.80;;
55758;SDS011;41678;52.126;20.664;2023-07-20T03:34:08;9.15;;;3.17;;
55758;SDS011;41678;52.126;20.664;2023-07-20T03:44:50;10.90;;;3.17;;
55758;SDS011;41678;52.126;20.664;2023-07-20T03:50:10;9.50;;;3.58;;
55758;SDS011;41678;52.126;20.664;2023-07-20T03:55:29;12.43;;;3.63;;
55758;SDS011;41678;52.126;20.664;2023-07-20T04:00:50;7.25;;;3.40;;
55758;SDS011;41678;52.126;20.664;2023-07-20T04:11:30;7.95;;;3.28;;
55758;SDS011;41678;52.126;20.664;2023-07-20T04:16:50;9.77;;;3.78;;
55758;SDS011;41678;52.126;20.664;2023-07-20T04:22:10;7.80;;;3.35;;
55758;SDS011;41678;52.126;20.664;2023-07-20T04:27:30;12.98;;;3.28;;
55758;SDS011;41678;52.126;20.664;2023-07-20T04:32:51;12.30;;;3.97;;
55758;SDS011;41678;52.126;20.664;2023-07-20T04:38:11;11.27;;;3.65;;
55758;SDS011;41678;52.126;20.664;2023-07-20T04:43:31;13.88;;;3.67;;
55758;SDS011;41678;52.126;20.664;2023-07-20T04:48:51;7.60;;;4.00;;
55758;SDS011;41678;52.126;20.664;2023-07-20T04:54:11;10.52;;;3.70;;
55758;SDS011;41678;52.126;20.664;2023-07-20T04:59:32;10.48;;;4.28;;
55758;SDS011;41678;52.126;20.664;2023-07-20T05:04:52;10.57;;;4.03;;
55758;SDS011;41678;52.126;20.664;2023-07-20T05:10:11;7.43;;;3.50;;
55758;SDS011;41678;52.126;20.664;2023-07-20T05:15:34;8.48;;;3.85;;
55758;SDS011;41678;52.126;20.664;2023-07-20T05:20:56;7.45;;;3.67;;
55758;SDS011;41678;52.126;20.664;2023-07-20T05:26:15;9.35;;;3.90;;
55758;SDS011;41678;52.126;20.664;2023-07-20T05:31:35;8.27;;;3.80;;
55758;SDS011;41678;52.126;20.664;2023-07-20T05:36:55;6.35;;;3.00;;
55758;SDS011;41678;52.126;20.664;2023-07-20T05:42:14;11.68;;;3.92;;
55758;SDS011;41678;52.126;20.664;2023-07-20T05:47:34;8.50;;;3.33;;
55758;SDS011;41678;52.126;20.664;2023-07-20T05:52:53;8.23;;;3.60;;
55758;SDS011;41678;52.126;20.664;2023-07-20T05:58:14;10.40;;;4.47;;
55758;SDS011;41678;52.126;20.664;2023-07-20T06:03:33;12.05;;;3.88;;
55758;SDS011;41678;52.126;20.664;2023-07-20T06:08:54;14.07;;;4.40;;
55758;SDS011;41678;52.126;20.664;2023-07-20T06:14:14;10.07;;;3.83;;
55758;SDS011;41678;52.126;20.664;2023-07-20T06:19:34;9.43;;;3.80;;
55758;SDS011;41678;52.126;20.664;2023-07-20T06:24:54;10.45;;;4.65;;
55758;SDS011;41678;52.126;20.664;2023-07-20T06:30:13;11.48;;;3.95;;
55758;SDS011;41678;52.126;20.664;2023-07-20T06:35:33;8.23;;;4.07;;
55758;SDS011;41678;52.126;20.664;2023-07-20T06:46:13;8.57;;;4.60;;
55758;SDS011;41678;52.126;20.664;2023-07-20T06:51:33;9.35;;;4.22;;
55758;SDS011;41678;52.126;20.664;2023-07-20T06:56:52;9.18;;;4.20;;
55758;SDS011;41678;52.126;20.664;2023-07-20T07:02:12;11.20;;;4.53;;
55758;SDS011;41678;52.126;20.664;2023-07-20T07:07:31;10.30;;;4.57;;
55758;SDS011;41678;52.126;20.664;2023-07-20T07:12:51;12.38;;;4.80;;
55758;SDS011;41678;52.126;20.664;2023-07-20T07:18:14;11.05;;;4.38;;
55758;SDS011;41678;52.126;20.664;2023-07-20T07:23:33;19.58;;;5.20;;
55758;SDS011;41678;52.126;20.664;2023-07-20T07:28:53;19.88;;;5.15;;
55758;SDS011;41678;52.126;20.664;2023-07-20T07:34:13;9.57;;;4.35;;
55758;SDS011;41678;52.126;20.664;2023-07-20T07:39:32;14.88;;;5.38;;
55758;SDS011;41678;52.126;20.664;2023-07-20T07:44:52;16.60;;;4.90;;
55758;SDS011;41678;52.126;20.664;2023-07-20T07:50:11;14.77;;;4.75;;
55758;SDS011;41678;52.126;20.664;2023-07-20T07:55:31;18.60;;;5.00;;
55758;SDS011;41678;52.126;20.664;2023-07-20T08:00:50;10.98;;;4.25;;
55758;SDS011;41678;52.126;20.664;2023-07-20T08:06:10;9.63;;;3.72;;
55758;SDS011;41678;52.126;20.664;2023-07-20T08:11:29;9.98;;;4.05;;
55758;SDS011;41678;52.126;20.664;2023-07-20T08:16:50;8.43;;;3.38;;
55758;SDS011;41678;52.126;20.664;2023-07-20T08:22:09;6.18;;;3.08;;
55758;SDS011;41678;52.126;20.664;2023-07-20T08:27:29;13.73;;;3.72;;
55758;SDS011;41678;52.126;20.664;2023-07-20T08:32:49;9.80;;;3.17;;
55758;SDS011;41678;52.126;20.664;2023-07-20T08:38:08;7.10;;;3.58;;
55758;SDS011;41678;52.126;20.664;2023-07-20T08:43:28;7.05;;;3.42;;
55758;SDS011;41678;52.126;20.664;2023-07-20T08:54:10;11.63;;;4.43;;
55758;SDS011;41678;52.126;20.664;2023-07-20T08:59:31;6.95;;;3.60;;
55758;SDS011;41678;52.126;20.664;2023-07-20T09:04:51;8.13;;;3.28;;
55758;SDS011;41678;52.126;20.664;2023-07-20T09:10:11;10.80;;;5.53;;
55758;SDS011;41678;52.126;20.664;2023-07-20T09:15:32;12.27;;;6.32;;
55758;SDS011;41678;52.126;20.664;2023-07-20T09:20:52;15.75;;;8.65;;
55758;SDS011;41678;52.126;20.664;2023-07-20T09:26:13;12.70;;;5.70;;
55758;SDS011;41678;52.126;20.664;2023-07-20T09:31:34;8.25;;;3.95;;
55758;SDS011;41678;52.126;20.664;2023-07-20T09:36:54;9.60;;;3.40;;
55758;SDS011;41678;52.126;20.664;2023-07-20T09:42:14;11.65;;;3.72;;
55758;SDS011;41678;52.126;20.664;2023-07-20T09:47:38;9.15;;;3.03;;
55758;SDS011;41678;52.126;20.664;2023-07-20T09:52:59;7.75;;;2.95;;
55758;SDS011;41678;52.126;20.664;2023-07-20T09:58:21;7.10;;;3.17;;
55758;SDS011;41678;52.126;20.664;2023-07-20T10:03:41;7.65;;;3.25;;
55758;SDS011;41678;52.126;20.664;2023-07-20T10:09:04;6.55;;;2.70;;
55758;SDS011;41678;52.126;20.664;2023-07-20T10:14:26;8.95;;;3.10;;
55758;SDS011;41678;52.126;20.664;2023-07-20T10:19:51;7.65;;;3.42;;
55758;SDS011;41678;52.126;20.664;2023-07-20T10:25:12;7.45;;;2.90;;
55758;SDS011;41678;52.126;20.664;2023-07-20T10:30:36;8.60;;;3.10;;
55758;SDS011;41678;52.126;20.664;2023-07-20T10:35:57;10.60;;;2.90;;
55758;SDS011;41678;52.126;20.664;2023-07-20T10:46:49;7.03;;;3.03;;
55758;SDS011;41678;52.126;20.664;2023-07-20T10:52:09;7.18;;;2.85;;
55758;SDS011;41678;52.126;20.664;2023-07-20T10:57:30;6.55;;;2.80;;
55758;SDS011;41678;52.126;20.664;2023-07-20T11:02:51;6.40;;;2.30;;
55758;SDS011;41678;52.126;20.664;2023-07-20T11:08:37;5.57;;;2.50;;
55758;SDS011;41678;52.126;20.664;2023-07-20T11:19:25;9.88;;;2.42;;
55758;SDS011;41678;52.126;20.664;2023-07-20T11:24:46;8.45;;;2.58;;
55758;SDS011;41678;52.126;20.664;2023-07-20T11:30:05;5.75;;;2.38;;
55758;SDS011;41678;52.126;20.664;2023-07-20T11:35:35;6.10;;;2.60;;
55758;SDS011;41678;52.126;20.664;2023-07-20T11:41:02;8.65;;;2.42;;
55758;SDS011;41678;52.126;20.664;2023-07-20T11:46:22;10.05;;;2.58;;
55758;SDS011;41678;52.126;20.664;2023-07-20T11:51:42;5.90;;;2.30;;
55758;SDS011;41678;52.126;20.664;2023-07-20T11:57:02;6.13;;;2.10;;
55758;SDS011;41678;52.126;20.664;2023-07-20T12:02:23;5.57;;;2.03;;
55758;SDS011;41678;52.126;20.664;2023-07-20T12:07:46;7.32;;;2.20;;
55758;SDS011;41678;52.126;20.664;2023-07-20T12:13:06;8.43;;;1.97;;
55758;SDS011;41678;52.126;20.664;2023-07-20T12:18:34;6.78;;;2.00;;
55758;SDS011;41678;52.126;20.664;2023-07-20T12:23:55;5.00;;;1.88;;
55758;SDS011;41678;52.126;20.664;2023-07-20T12:29:17;7.53;;;2.00;;
55758;SDS011;41678;52.126;20.664;2023-07-20T12:34:36;6.03;;;2.28;;
55758;SDS011;41678;52.126;20.664;2023-07-20T12:39:58;6.68;;;2.47;;
55758;SDS011;41678;52.126;20.664;2023-07-20T12:45:17;9.88;;;2.17;;
55758;SDS011;41678;52.126;20.664;2023-07-20T12:50:37;8.73;;;2.85;;
55758;SDS011;41678;52.126;20.664;2023-07-20T12:55:58;5.63;;;2.28;;
55758;SDS011;41678;52.126;20.664;2023-07-20T13:06:38;5.60;;;2.13;;
55758;SDS011;41678;52.126;20.664;2023-07-20T13:11:59;8.23;;;2.33;;
55758;SDS011;41678;52.126;20.664;2023-07-20T13:17:20;5.40;;;1.98;;
55758;SDS011;41678;52.126;20.664;2023-07-20T13:22:40;6.90;;;1.90;;
55758;SDS011;41678;52.126;20.664;2023-07-20T13:28:02;6.38;;;1.70;;
55758;SDS011;41678;52.126;20.664;2023-07-20T13:33:22;5.00;;;1.73;;
55758;SDS011;41678;52.126;20.664;2023-07-20T13:38:42;4.97;;;1.65;;
55758;SDS011;41678;52.126;20.664;2023-07-20T13:44:02;6.28;;;2.03;;
55758;SDS011;41678;52.126;20.664;2023-07-20T13:49:22;7.10;;;1.70;;
55758;SDS011;41678;52.126;20.664;2023-07-20T13:54:42;11.47;;;2.80;;
55758;SDS011;41678;52.126;20.664;2023-07-20T14:00:03;5.30;;;1.48;;
55758;SDS011;41678;52.126;20.664;2023-07-20T14:05:31;4.45;;;1.27;;
55758;SDS011;41678;52.126;20.664;2023-07-20T14:10:50;8.65;;;1.55;;
55758;SDS011;41678;52.126;20.664;2023-07-20T14:16:10;4.35;;;1.42;;
55758;SDS011;41678;52.126;20.664;2023-07-20T14:21:30;5.93;;;1.40;;
55758;SDS011;41678;52.126;20.664;2023-07-20T14:26:50;5.68;;;1.88;;
55758;SDS011;41678;52.126;20.664;2023-07-20T14:32:10;6.40;;;1.58;;
55758;SDS011;41678;52.126;20.664;2023-07-20T14:37:30;4.77;;;1.80;;
55758;SDS011;41678;52.126;20.664;2023-07-20T14:42:50;4.80;;;1.70;;
55758;SDS011;41678;52.126;20.664;2023-07-20T14:48:11;4.65;;;1.45;;
55758;SDS011;41678;52.126;20.664;2023-07-20T14:53:31;11.40;;;1.88;;
55758;SDS011;41678;52.126;20.664;2023-07-20T14:58:50;7.18;;;1.40;;
55758;SDS011;41678;52.126;20.664;2023-07-20T15:04:10;5.97;;;1.58;;
55758;SDS011;41678;52.126;20.664;2023-07-20T15:09:29;4.43;;;1.50;;
55758;SDS011;41678;52.126;20.664;2023-07-20T15:15:05;14.25;;;1.90;;
55758;SDS011;41678;52.126;20.664;2023-07-20T15:20:26;4.32;;;1.58;;
55758;SDS011;41678;52.126;20.664;2023-07-20T15:25:46;5.32;;;1.55;;
55758;SDS011;41678;52.126;20.664;2023-07-20T15:31:06;6.90;;;2.53;;
55758;SDS011;41678;52.126;20.664;2023-07-20T15:36:25;12.23;;;2.10;;
55758;SDS011;41678;52.126;20.664;2023-07-20T15:41:47;5.30;;;1.98;;
55758;SDS011;41678;52.126;20.664;2023-07-20T15:47:07;4.50;;;1.65;;
55758;SDS011;41678;52.126;20.664;2023-07-20T15:52:27;6.75;;;1.30;;
55758;SDS011;41678;52.126;20.664;2023-07-20T15:57:46;4.80;;;1.67;;
55758;SDS011;41678;52.126;20.664;2023-07-20T16:03:06;4.80;;;1.73;;
55758;SDS011;41678;52.126;20.664;2023-07-20T16:08:30;6.40;;;1.65;;
55758;SDS011;41678;52.126;20.664;2023-07-20T16:13:50;3.72;;;1.25;;
55758;SDS011;41678;52.126;20.664;2023-07-20T16:19:13;2.78;;;0.90;;
55758;SDS011;41678;52.126;20.664;2023-07-20T16:24:33;6.68;;;1.50;;
55758;SDS011;41678;52.126;20.664;2023-07-20T16:29:53;3.83;;;0.70;;
55758;SDS011;41678;52.126;20.664;2023-07-20T16:35:15;4.93;;;0.98;;
55758;SDS011;41678;52.126;20.664;2023-07-20T16:40:35;5.82;;;0.90;;
55758;SDS011;41678;52.126;20.664;2023-07-20T16:46:00;3.35;;;1.00;;
55758;SDS011;41678;52.126;20.664;2023-07-20T16:51:20;2.67;;;0.80;;
55758;SDS011;41678;52.126;20.664;2023-07-20T16:56:39;3.85;;;1.15;;
55758;SDS011;41678;52.126;20.664;2023-07-20T17:02:01;6.13;;;1.08;;
55758;SDS011;41678;52.126;20.664;2023-07-20T17:07:21;4.75;;;1.40;;
55758;SDS011;41678;52.126;20.664;2023-07-20T17:12:42;3.90;;;1.40;;
55758;SDS011;41678;52.126;20.664;2023-07-20T17:18:02;6.95;;;1.38;;
55758;SDS011;41678;52.126;20.664;2023-07-20T17:23:22;4.80;;;1.35;;
55758;SDS011;41678;52.126;20.664;2023-07-20T17:28:41;4.28;;;1.27;;
55758;SDS011;41678;52.126;20.664;2023-07-20T17:34:02;3.70;;;1.10;;
55758;SDS011;41678;52.126;20.664;2023-07-20T17:39:22;5.10;;;1.25;;
55758;SDS011;41678;52.126;20.664;2023-07-20T17:44:42;6.30;;;1.40;;
55758;SDS011;41678;52.126;20.664;2023-07-20T17:50:02;5.47;;;1.20;;
55758;SDS011;41678;52.126;20.664;2023-07-20T17:55:22;4.32;;;1.20;;
55758;SDS011;41678;52.126;20.664;2023-07-20T18:00:42;4.30;;;1.10;;
55758;SDS011;41678;52.126;20.664;2023-07-20T18:06:05;12.10;;;1.65;;
55758;SDS011;41678;52.126;20.664;2023-07-20T18:11:26;4.00;;;1.25;;
55758;SDS011;41678;52.126;20.664;2023-07-20T18:16:45;6.05;;;1.42;;
55758;SDS011;41678;52.126;20.664;2023-07-20T18:22:05;7.15;;;1.30;;
55758;SDS011;41678;52.126;20.664;2023-07-20T18:27:25;4.72;;;1.70;;
55758;SDS011;41678;52.126;20.664;2023-07-20T18:32:46;5.47;;;1.33;;
55758;SDS011;41678;52.126;20.664;2023-07-20T18:38:06;4.60;;;1.40;;
55758;SDS011;41678;52.126;20.664;2023-07-20T18:43:26;6.28;;;2.17;;
55758;SDS011;41678;52.126;20.664;2023-07-20T18:48:45;5.82;;;2.72;;
55758;SDS011;41678;52.126;20.664;2023-07-20T18:54:05;5.78;;;2.60;;
55758;SDS011;41678;52.126;20.664;2023-07-20T18:59:24;6.85;;;2.80;;
55758;SDS011;41678;52.126;20.664;2023-07-20T19:04:44;6.63;;;2.15;;
55758;SDS011;41678;52.126;20.664;2023-07-20T19:10:04;6.18;;;1.92;;
55758;SDS011;41678;52.126;20.664;2023-07-20T19:15:25;7.38;;;1.80;;
55758;SDS011;41678;52.126;20.664;2023-07-20T19:20:44;6.88;;;2.00;;
55758;SDS011;41678;52.126;20.664;2023-07-20T19:26:04;5.25;;;2.05;;
55758;SDS011;41678;52.126;20.664;2023-07-20T19:31:28;5.85;;;1.92;;
55758;SDS011;41678;52.126;20.664;2023-07-20T19:36:48;8.45;;;3.83;;
55758;SDS011;41678;52.126;20.664;2023-07-20T19:42:08;8.32;;;4.07;;
55758;SDS011;41678;52.126;20.664;2023-07-20T19:47:27;7.07;;;3.17;;
55758;SDS011;41678;52.126;20.664;2023-07-20T19:52:47;7.05;;;2.80;;
55758;SDS011;41678;52.126;20.664;2023-07-20T19:58:07;7.32;;;2.80;;
55758;SDS011;41678;52.126;20.664;2023-07-20T20:03:26;6.22;;;2.53;;
55758;SDS011;41678;52.126;20.664;2023-07-20T20:08:46;6.80;;;2.53;;
55758;SDS011;41678;52.126;20.664;2023-07-20T20:14:05;8.65;;;2.78;;
55758;SDS011;41678;52.126;20.664;2023-07-20T20:19:25;5.75;;;2.25;;
55758;SDS011;41678;52.126;20.664;2023-07-20T20:24:44;8.18;;;2.42;;
55758;SDS011;41678;52.126;20.664;2023-07-20T20:36:04;5.03;;;2.42;;
55758;SDS011;41678;52.126;20.664;2023-07-20T20:41:25;9.00;;;2.90;;
55758;SDS011;41678;52.126;20.664;2023-07-20T20:46:48;6.13;;;2.80;;
55758;SDS011;41678;52.126;20.664;2023-07-20T20:52:08;7.10;;;2.70;;
55758;SDS011;41678;52.126;20.664;2023-07-20T20:57:27;8.65;;;2.67;;
55758;SDS011;41678;52.126;20.664;2023-07-20T21:02:47;9.60;;;2.88;;
55758;SDS011;41678;52.126;20.664;2023-07-20T21:08:07;6.50;;;2.67;;
55758;SDS011;41678;52.126;20.664;2023-07-20T21:13:27;5.70;;;2.33;;
55758;SDS011;41678;52.126;20.664;2023-07-20T21:18:46;5.20;;;2.13;;
55758;SDS011;41678;52.126;20.664;2023-07-20T21:24:07;9.73;;;2.30;;
55758;SDS011;41678;52.126;20.664;2023-07-20T21:29:26;5.30;;;1.95;;
55758;SDS011;41678;52.126;20.664;2023-07-20T21:34:45;4.95;;;1.80;;
55758;SDS011;41678;52.126;20.664;2023-07-20T21:40:06;5.38;;;2.08;;
55758;SDS011;41678;52.126;20.664;2023-07-20T21:45:26;5.18;;;1.90;;
55758;SDS011;41678;52.126;20.664;2023-07-20T21:50:48;6.25;;;2.15;;
55758;SDS011;41678;52.126;20.664;2023-07-20T21:56:08;5.03;;;1.88;;
55758;SDS011;41678;52.126;20.664;2023-07-20T22:01:28;6.88;;;2.20;;
55758;SDS011;41678;52.126;20.664;2023-07-20T22:06:47;5.60;;;1.92;;
55758;SDS011;41678;52.126;20.664;2023-07-20T22:12:08;5.20;;;1.90;;
55758;SDS011;41678;52.126;20.664;2023-07-20T22:17:31;5.18;;;1.73;;
55758;SDS011;41678;52.126;20.664;2023-07-20T22:22:51;7.50;;;1.73;;
55758;SDS011;41678;52.126;20.664;2023-07-20T22:28:11;6.55;;;1.80;;
55758;SDS011;41678;52.126;20.664;2023-07-20T22:33:31;5.07;;;1.90;;
55758;SDS011;41678;52.126;20.664;2023-07-20T22:38:50;6.18;;;2.10;;
55758;SDS011;41678;52.126;20.664;2023-07-20T22:44:10;5.07;;;1.80;;
55758;SDS011;41678;52.126;20.664;2023-07-20T22:49:30;8.85;;;2.25;;
55758;SDS011;41678;52.126;20.664;2023-07-20T22:54:52;7.70;;;2.17;;
55758;SDS011;41678;52.126;20.664;2023-07-20T23:00:12;7.97;;;2.08;;
55758;SDS011;41678;52.126;20.664;2023-07-20T23:05:33;6.30;;;1.80;;
55758;SDS011;41678;52.126;20.664;2023-07-20T23:10:52;5.68;;;1.83;;
55758;SDS011;41678;52.126;20.664;2023-07-20T23:16:12;8.18;;;2.10;;
55758;SDS011;41678;52.126;20.664;2023-07-20T23:21:32;8.90;;;2.03;;
55758;SDS011;41678;52.126;20.664;2023-07-20T23:26:51;5.50;;;1.98;;
55758;SDS011;41678;52.126;20.664;2023-07-20T23:32:12;4.47;;;1.77;;
55758;SDS011;41678;52.126;20.664;2023-07-20T23:37:35;7.60;;;2.40;;
55758;SDS011;41678;52.126;20.664;2023-07-20T23:42:55;4.70;;;1.80;;
55758;SDS011;41678;52.126;20.664;2023-07-20T23:48:15;6.60;;;2.45;;
55758;SDS011;41678;52.126;20.664;2023-07-20T23:53:36;7.00;;;2.35;;
55758;SDS011;41678;52.126;20.664;2023-07-20T23:58:56;3.97;;;1.57;;
